createdAt,value
2018-12-11T00:00:23.511Z,100384.98
2018-12-11T00:03:13.218Z,100384.06
2018-12-11T00:06:00.347Z,100377.38
2018-12-11T00:08:47.900Z,100370.34
2018-12-11T00:11:35.059Z,100383.39
2018-12-11T00:17:39.711Z,100382.09
2018-12-11T00:20:27.543Z,100390.72
2018-12-11T00:23:14.779Z,100379.16
2018-12-11T00:26:02.580Z,100379.51
2018-12-11T00:28:49.491Z,100375.01
2018-12-11T00:31:37.380Z,100390.17
2018-12-11T00:34:25.543Z,100377.80
2018-12-11T00:37:12.989Z,100386.64
2018-12-11T00:40:03.305Z,100384.31
2018-12-11T00:42:50.190Z,100383.63
2018-12-11T00:48:43.433Z,100382.95
2018-12-11T00:51:32.147Z,100376.81
2018-12-11T00:54:20.183Z,100389.55
2018-12-11T00:57:06.786Z,100374.41
2018-12-11T00:59:55.115Z,100382.25
2018-12-11T01:02:42.053Z,100387.92
2018-12-11T01:05:28.820Z,100388.92
2018-12-11T01:08:15.662Z,100382.16
2018-12-11T01:11:02.532Z,100389.14
2018-12-11T01:13:49.514Z,100385.84
2018-12-11T01:16:37.619Z,100386.19
2018-12-11T01:19:30.157Z,100389.33
2018-12-11T01:22:17.517Z,100380.97
2018-12-11T01:25:04.813Z,100389.25
2018-12-11T01:31:04.957Z,100384.42
2018-12-11T01:33:56.741Z,100380.95
2018-12-11T01:36:43.858Z,100377.44
2018-12-11T01:39:32.000Z,100387.84
2018-12-11T01:42:26.885Z,100376.88
2018-12-11T01:45:14.856Z,100382.63
2018-12-11T01:48:18.478Z,100387.53
2018-12-11T01:51:05.492Z,100396.80
2018-12-11T01:54:00.886Z,100396.29
2018-12-11T01:56:48.521Z,100401.56
2018-12-11T02:02:48.254Z,100397.66
2018-12-11T02:05:35.587Z,100390.19
2018-12-11T02:08:23.732Z,100398.73
2018-12-11T02:11:10.540Z,100395.04
2018-12-11T02:14:03.763Z,100398.02
2018-12-11T02:16:51.199Z,100399.48
2018-12-11T02:19:42.018Z,100393.44
2018-12-11T02:22:28.844Z,100393.14
2018-12-11T02:25:17.136Z,100383.68
2018-12-11T02:28:20.119Z,100390.16
2018-12-11T02:31:07.370Z,100384.73
2018-12-11T02:33:54.187Z,100389.97
2018-12-11T02:36:40.900Z,100387.91
2018-12-11T02:39:28.509Z,100382.30
2018-12-11T02:42:17.182Z,100381.05
2018-12-11T02:45:04.413Z,100394.56
2018-12-11T02:47:51.434Z,100387.09
2018-12-11T02:50:39.826Z,100405.98
2018-12-11T02:53:26.789Z,100383.27
2018-12-11T02:56:13.624Z,100398.91
2018-12-11T02:59:00.877Z,100395.36
2018-12-11T03:01:47.674Z,100401.09
2018-12-11T03:07:59.329Z,100400.25
2018-12-11T03:10:46.281Z,100390.89
2018-12-11T03:13:33.664Z,100396.10
2018-12-11T03:16:28.532Z,100400.05
2018-12-11T03:19:15.477Z,100390.13
2018-12-11T03:22:02.623Z,100398.59
2018-12-11T03:24:50.669Z,100403.86
2018-12-11T03:27:37.796Z,100412.97
2018-12-11T03:30:25.333Z,100406.27
2018-12-11T03:36:19.152Z,100390.23
2018-12-11T03:39:06.663Z,100404.67
2018-12-11T03:41:58.708Z,100418.77
2018-12-11T03:44:45.822Z,100423.64
2018-12-11T03:47:34.311Z,100422.36
2018-12-11T03:50:24.858Z,100427.52
2018-12-11T03:53:11.951Z,100414.38
2018-12-11T03:55:59.091Z,100406.47
2018-12-11T04:01:53.047Z,100412.37
2018-12-11T04:04:40.937Z,100411.66
2018-12-11T04:07:28.294Z,100418.37
2018-12-11T04:10:15.622Z,100415.83
2018-12-11T04:13:03.000Z,100411.98
2018-12-11T04:15:50.477Z,100422.53
2018-12-11T04:18:37.506Z,100408.55
2018-12-11T04:21:24.803Z,100408.61
2018-12-11T04:24:12.269Z,100407.24
2018-12-11T04:26:59.045Z,100417.26
2018-12-11T04:29:45.902Z,100416.71
2018-12-11T04:32:32.773Z,100420.62
2018-12-11T04:35:19.678Z,100407.89
2018-12-11T04:38:06.466Z,100415.40
2018-12-11T04:40:53.903Z,100413.57
2018-12-11T04:43:40.772Z,100424.34
2018-12-11T04:46:27.765Z,100429.45
2018-12-11T04:49:15.509Z,100436.42
2018-12-11T04:52:02.757Z,100430.93
2018-12-11T04:54:49.973Z,100430.39
2018-12-11T04:57:37.054Z,100433.63
2018-12-11T05:00:25.862Z,100440.09
2018-12-11T05:03:12.727Z,100431.77
2018-12-11T05:05:59.927Z,100443.67
2018-12-11T05:08:58.467Z,100445.55
2018-12-11T05:11:45.693Z,100440.73
2018-12-11T05:14:32.838Z,100449.98
2018-12-11T05:17:19.790Z,100448.58
2018-12-11T05:20:06.926Z,100446.95
2018-12-11T05:22:54.436Z,100455.28
2018-12-11T05:25:42.105Z,100447.95
2018-12-11T05:28:29.066Z,100458.54
2018-12-11T05:31:16.045Z,100459.96
2018-12-11T05:34:03.024Z,100456.88
2018-12-11T05:36:51.636Z,100451.17
2018-12-11T05:39:38.397Z,100458.77
2018-12-11T05:42:25.264Z,100445.58
2018-12-11T05:45:14.421Z,100455.56
2018-12-11T05:48:01.396Z,100443.84
2018-12-11T05:50:49.116Z,100464.22
2018-12-11T05:53:36.380Z,100454.69
2018-12-11T05:56:23.937Z,100470.38
2018-12-11T05:59:10.993Z,100466.07
2018-12-11T06:01:58.058Z,100462.16
2018-12-11T06:04:45.172Z,100456.45
2018-12-11T06:07:33.314Z,100435.89
2018-12-11T06:10:20.347Z,100444.53
2018-12-11T06:13:07.334Z,100441.48
2018-12-11T06:15:54.206Z,100462.45
2018-12-11T06:18:49.050Z,100461.10
2018-12-11T06:21:38.997Z,100467.86
2018-12-11T06:24:26.280Z,100471.66
2018-12-11T06:27:13.803Z,100472.98
2018-12-11T06:30:00.877Z,100479.94
2018-12-11T06:32:49.175Z,100474.26
2018-12-11T06:35:36.378Z,100468.21
2018-12-11T06:38:23.738Z,100479.82
2018-12-11T06:41:11.215Z,100479.48
2018-12-11T06:43:58.513Z,100485.53
2018-12-11T06:46:46.172Z,100488.91
2018-12-11T06:49:33.044Z,100485.07
2018-12-11T06:52:21.641Z,100484.61
2018-12-11T06:55:10.575Z,100481.56
2018-12-11T06:57:57.911Z,100500.77
2018-12-11T07:00:45.337Z,100492.38
2018-12-11T07:03:32.211Z,100495.12
2018-12-11T07:06:19.624Z,100509.53
2018-12-11T07:09:10.638Z,100499.86
2018-12-11T07:12:01.855Z,100508.53
2018-12-11T07:14:49.184Z,100494.20
2018-12-11T07:17:36.110Z,100514.52
2018-12-11T07:20:23.509Z,100505.39
2018-12-11T07:23:11.430Z,100517.64
2018-12-11T07:25:58.275Z,100515.87
2018-12-11T07:28:45.526Z,100515.95
2018-12-11T07:31:32.958Z,100520.27
2018-12-11T07:34:20.508Z,100509.39
2018-12-11T07:37:10.728Z,100526.05
2018-12-11T07:40:00.793Z,100517.34
2018-12-11T07:42:53.261Z,100532.53
2018-12-11T07:45:40.570Z,100532.33
2018-12-11T07:48:29.318Z,100527.42
2018-12-11T07:51:16.145Z,100544.46
2018-12-11T07:57:09.291Z,100529.05
2018-12-11T07:59:56.465Z,100538.45
2018-12-11T08:02:43.897Z,100540.11
2018-12-11T08:05:31.163Z,100540.23
2018-12-11T08:08:18.672Z,100542.34
2018-12-11T08:11:06.684Z,100547.08
2018-12-11T08:17:07.504Z,100535.50
2018-12-11T08:19:55.824Z,100548.70
2018-12-11T08:34:15.634Z,100554.02
2018-12-11T08:40:11.340Z,100550.45
2018-12-11T08:52:23.006Z,100579.13
2018-12-11T08:55:10.205Z,100572.47
2018-12-11T08:57:56.975Z,100575.55
2018-12-11T09:00:43.975Z,100572.47
2018-12-11T09:03:30.953Z,100582.41
2018-12-11T09:12:05.193Z,100585.33
2018-12-11T09:15:08.064Z,100589.44
2018-12-11T09:18:03.193Z,100586.36
2018-12-11T09:20:53.339Z,100586.30
2018-12-11T09:23:42.514Z,100595.09
2018-12-11T09:26:29.832Z,100586.75
2018-12-11T09:29:16.958Z,100594.17
2018-12-11T09:32:04.396Z,100604.16
2018-12-11T09:38:04.712Z,100611.23
2018-12-11T09:44:05.407Z,100610.73
2018-12-11T09:53:18.050Z,100608.19
2018-12-11T09:56:05.070Z,100616.92
2018-12-11T09:58:52.299Z,100611.29
2018-12-11T10:01:41.394Z,100603.38
2018-12-11T10:07:08.910Z,100610.89
2018-12-11T10:09:55.925Z,100608.97
2018-12-11T10:12:42.735Z,100621.49
2018-12-11T10:15:29.955Z,100621.13
2018-12-11T10:18:17.193Z,100623.63
2018-12-11T10:21:04.187Z,100625.14
2018-12-11T10:23:51.140Z,100631.41
2018-12-11T10:26:38.427Z,100625.38
2018-12-11T10:29:24.968Z,100624.83
2018-12-11T10:32:12.214Z,100629.54
2018-12-11T10:35:01.126Z,100638.13
2018-12-11T10:37:46.781Z,100625.88
2018-12-11T10:40:33.626Z,100629.52
2018-12-11T10:43:20.630Z,100626.35
2018-12-11T10:46:07.400Z,100630.80
2018-12-11T10:48:56.210Z,100624.78
2018-12-11T10:51:42.783Z,100628.16
2018-12-11T10:54:29.495Z,100630.12
2018-12-11T10:57:16.110Z,100632.74
2018-12-11T11:00:02.651Z,100634.09
2018-12-11T11:03:06.385Z,100632.80
2018-12-11T11:05:53.414Z,100636.83
2018-12-11T11:08:41.521Z,100630.83
2018-12-11T11:11:29.437Z,100635.87
2018-12-11T11:14:17.373Z,100643.03
2018-12-11T11:17:05.214Z,100643.95
2018-12-11T11:19:52.225Z,100643.73
2018-12-11T11:22:42.495Z,100647.78
2018-12-11T11:25:29.859Z,100651.49
2018-12-11T11:28:18.203Z,100647.95
2018-12-11T11:31:05.141Z,100654.14
2018-12-11T11:33:56.603Z,100649.38
2018-12-11T11:36:39.506Z,100659.56
2018-12-11T11:39:26.853Z,100656.98
2018-12-11T11:42:14.724Z,100664.44
2018-12-11T11:45:05.254Z,100664.92
2018-12-11T11:47:52.604Z,100662.38
2018-12-11T11:50:39.222Z,100665.08
2018-12-11T11:53:26.692Z,100668.94
2018-12-11T11:56:13.301Z,100680.20
2018-12-11T11:59:00.663Z,100670.87
2018-12-11T12:01:47.672Z,100678.38
2018-12-11T12:04:38.171Z,100686.63
2018-12-11T12:07:26.595Z,100684.59
2018-12-11T12:10:17.107Z,100685.21
2018-12-11T12:13:04.530Z,100692.58
2018-12-11T12:15:51.439Z,100677.16
2018-12-11T12:18:39.948Z,100689.39
2018-12-11T12:21:26.986Z,100687.53
2018-12-11T12:24:13.984Z,100688.14
2018-12-11T12:27:00.871Z,100690.75
2018-12-11T12:30:03.843Z,100680.41
2018-12-11T12:32:50.716Z,100686.09
2018-12-11T12:35:37.392Z,100687.03
2018-12-11T12:38:24.267Z,100678.61
2018-12-11T12:41:11.092Z,100678.45
2018-12-11T12:43:58.227Z,100691.84
2018-12-11T12:46:45.158Z,100689.57
2018-12-11T12:49:32.118Z,100693.97
2018-12-11T12:52:19.489Z,100694.22
2018-12-11T12:55:06.697Z,100700.44
2018-12-11T12:57:53.866Z,100697.31
2018-12-11T13:00:40.721Z,100706.47
2018-12-11T13:03:30.251Z,100709.72
2018-12-11T13:06:18.215Z,100710.56
2018-12-11T13:09:05.437Z,100712.91
2018-12-11T13:12:12.348Z,100714.31
2018-12-11T13:15:07.197Z,100708.48
2018-12-11T13:17:51.224Z,100714.82
2018-12-11T13:20:40.798Z,100713.50
2018-12-11T13:23:28.037Z,100722.88
2018-12-11T13:26:19.767Z,100717.55
2018-12-11T13:29:15.584Z,100717.11
2018-12-11T13:32:08.493Z,100721.23
2018-12-11T13:35:08.904Z,100716.20
2018-12-11T13:37:59.066Z,100718.85
2018-12-11T13:40:46.708Z,100712.53
2018-12-11T13:46:44.398Z,100720.11
2018-12-11T13:49:35.869Z,100720.56
2018-12-11T13:52:25.899Z,100729.44
2018-12-11T13:55:14.138Z,100732.95
2018-12-11T13:58:07.823Z,100740.50
2018-12-11T14:00:58.507Z,100742.55
2018-12-11T14:03:46.181Z,100744.70
2018-12-11T14:06:40.885Z,100747.61
2018-12-11T14:09:43.388Z,100755.75
2018-12-11T14:12:32.858Z,100755.50
2018-12-11T14:15:21.313Z,100756.89
2018-12-11T14:18:14.260Z,100752.14
2018-12-11T14:24:08.756Z,100748.27
2018-12-11T14:26:59.160Z,100757.34
2018-12-11T14:29:56.841Z,100753.48
2018-12-11T14:32:47.106Z,100747.58
2018-12-11T14:35:34.525Z,100755.30
2018-12-11T14:38:21.560Z,100758.50
2018-12-11T14:41:09.906Z,100759.30
2018-12-11T14:43:57.406Z,100764.70
2018-12-11T14:46:48.806Z,100770.58
2018-12-11T14:49:37.047Z,100770.25
2018-12-11T14:52:24.632Z,100770.12
2018-12-11T14:55:11.718Z,100767.08
2018-12-11T14:57:58.697Z,100766.20
2018-12-11T15:00:47.515Z,100771.12
2018-12-11T15:03:42.151Z,100773.37
2018-12-11T15:06:29.401Z,100779.20
2018-12-11T15:09:37.820Z,100775.52
2018-12-11T15:12:24.770Z,100774.91
2018-12-11T15:15:13.597Z,100775.69
2018-12-11T15:18:01.250Z,100786.30
2018-12-11T15:20:51.212Z,100774.23
2018-12-11T15:23:39.951Z,100776.85
2018-12-11T15:26:33.621Z,100779.13
2018-12-11T15:29:20.538Z,100789.55
2018-12-11T15:32:07.385Z,100787.89
2018-12-11T15:34:54.997Z,100791.83
2018-12-11T15:37:50.546Z,100795.17
2018-12-11T15:40:37.980Z,100799.88
2018-12-11T15:43:24.833Z,100798.88
2018-12-11T15:46:11.771Z,100800.20
2018-12-11T15:49:01.610Z,100805.73
2018-12-11T15:51:48.802Z,100800.10
2018-12-11T15:54:36.478Z,100810.37
2018-12-11T15:57:24.396Z,100816.23
2018-12-11T16:00:11.852Z,100812.75
2018-12-11T16:02:59.265Z,100815.24
2018-12-11T16:05:46.656Z,100813.88
2018-12-11T16:08:36.907Z,100818.96
2018-12-11T16:14:27.479Z,100819.35
2018-12-11T16:17:14.751Z,100820.43
2018-12-11T16:20:01.644Z,100822.23
2018-12-11T16:22:48.792Z,100824.94
2018-12-11T16:25:35.714Z,100827.27
2018-12-11T16:28:23.257Z,100828.60
2018-12-11T16:31:10.016Z,100835.75
2018-12-11T16:33:57.139Z,100842.78
2018-12-11T16:36:45.648Z,100846.29
2018-12-11T16:39:33.405Z,100841.56
2018-12-11T16:42:21.264Z,100840.71
2018-12-11T16:45:08.038Z,100848.11
2018-12-11T16:47:55.350Z,100850.30
2018-12-11T16:53:48.647Z,100852.05
2018-12-11T16:56:38.171Z,100858.56
2018-12-11T16:59:25.562Z,100857.64
2018-12-11T17:02:12.193Z,100865.93
2018-12-11T17:04:58.808Z,100863.29
2018-12-11T17:07:46.670Z,100861.13
2018-12-11T17:10:34.695Z,100859.98
2018-12-11T17:13:24.823Z,100869.45
2018-12-11T17:16:11.939Z,100880.11
2018-12-11T17:18:58.717Z,100880.24
2018-12-11T17:21:47.120Z,100877.28
2018-12-11T17:24:44.395Z,100885.18
2018-12-11T17:27:34.662Z,100883.48
2018-12-11T17:30:22.222Z,100890.87
2018-12-11T17:33:09.537Z,100881.72
2018-12-11T17:39:03.673Z,100891.34
2018-12-11T17:42:02.821Z,100892.61
2018-12-11T17:44:57.178Z,100893.26
2018-12-11T17:47:48.086Z,100890.91
2018-12-11T17:50:39.718Z,100902.09
2018-12-11T17:53:37.375Z,100891.52
2018-12-11T17:56:24.120Z,100900.56
2018-12-11T17:59:11.724Z,100910.70
2018-12-11T18:05:11.814Z,100916.62
2018-12-11T18:07:59.275Z,100906.33
2018-12-11T18:10:47.252Z,100914.44
2018-12-11T18:13:35.667Z,100922.97
2018-12-11T18:16:25.618Z,100924.06
2018-12-11T18:19:12.320Z,100921.77
2018-12-11T18:21:58.978Z,100927.79
2018-12-11T18:24:47.214Z,100932.50
2018-12-11T18:27:34.179Z,100935.08
2018-12-11T18:30:23.650Z,100934.78
2018-12-11T18:33:11.443Z,100942.79
2018-12-11T18:35:58.479Z,100943.23
2018-12-11T18:38:45.756Z,100939.70
2018-12-11T18:41:32.768Z,100938.42
2018-12-11T18:44:21.795Z,100947.00
2018-12-11T18:47:08.755Z,100950.02
2018-12-11T18:49:55.756Z,100949.50
2018-12-11T18:52:43.192Z,100939.83
2018-12-11T18:55:30.178Z,100948.06
2018-12-11T18:58:17.220Z,100950.87
2018-12-11T19:01:04.202Z,100956.01
2018-12-11T19:03:52.702Z,100961.87
2018-12-11T19:06:45.473Z,100956.25
2018-12-11T19:09:32.754Z,100953.52
2018-12-11T19:12:23.359Z,100953.53
2018-12-11T19:15:11.062Z,100952.31
2018-12-11T19:18:01.058Z,100952.91
2018-12-11T19:20:50.178Z,100954.86
2018-12-11T19:23:37.015Z,100958.38
2018-12-11T19:26:29.173Z,100954.98
2018-12-11T19:29:16.577Z,100967.34
2018-12-11T19:32:09.496Z,100962.08
2018-12-11T19:35:04.524Z,100967.43
2018-12-11T19:37:57.506Z,100970.08
2018-12-11T19:40:44.783Z,100968.28
2018-12-11T19:43:32.357Z,100972.94
2018-12-11T19:46:20.500Z,100972.58
2018-12-11T19:49:07.135Z,100974.91
2018-12-11T19:51:53.848Z,100972.33
2018-12-11T19:54:43.372Z,100972.16
2018-12-11T19:57:29.976Z,100981.88
2018-12-11T20:00:23.778Z,100975.83
2018-12-11T20:03:15.013Z,100980.29
2018-12-11T20:06:01.734Z,100979.14
2018-12-11T20:08:50.657Z,100975.25
2018-12-11T20:11:39.355Z,100987.49
2018-12-11T20:14:26.544Z,100984.02
2018-12-11T20:17:14.112Z,100984.02
2018-12-11T20:20:01.651Z,100990.09
2018-12-11T20:22:50.468Z,100988.59
2018-12-11T20:25:38.001Z,100998.72
2018-12-11T20:31:31.532Z,100989.57
2018-12-11T20:34:18.926Z,101000.48
2018-12-11T20:37:05.589Z,100994.95
2018-12-11T20:39:52.537Z,100989.20
2018-12-11T20:42:40.598Z,101001.77
2018-12-11T20:45:28.002Z,100996.50
2018-12-11T20:48:17.715Z,100997.47
2018-12-11T20:51:04.311Z,101001.51
2018-12-11T20:53:54.000Z,101002.91
2018-12-11T20:56:41.148Z,100999.95
2018-12-11T20:59:27.865Z,101003.97
2018-12-11T21:02:25.740Z,101002.61
2018-12-11T21:05:13.309Z,101002.18
2018-12-11T21:08:06.908Z,101003.25
2018-12-11T21:10:55.245Z,101002.83
2018-12-11T21:13:42.871Z,101011.64
2018-12-11T21:16:32.780Z,101011.89
2018-12-11T21:19:23.203Z,101007.61
2018-12-11T21:22:18.203Z,101007.75
2018-12-11T21:25:05.485Z,101010.11
2018-12-11T21:27:52.805Z,101019.70
2018-12-11T21:30:58.961Z,101014.59
2018-12-11T21:33:49.451Z,101012.94
2018-12-11T21:36:36.462Z,101013.41
2018-12-11T21:39:24.836Z,101014.27
2018-12-11T21:42:12.995Z,101015.17
2018-12-11T21:45:16.572Z,101023.90
2018-12-11T21:48:03.209Z,101015.27
2018-12-11T21:50:52.112Z,101024.53
2018-12-11T21:53:39.982Z,101020.48
2018-12-11T21:56:28.315Z,101023.37
2018-12-11T21:59:26.509Z,101025.61
2018-12-11T22:02:17.380Z,101020.70
2018-12-11T22:05:04.573Z,101030.06
2018-12-11T22:07:51.730Z,101032.74
2018-12-11T22:10:38.491Z,101036.38
2018-12-11T22:13:25.511Z,101030.91
2018-12-11T22:16:12.572Z,101035.62
2018-12-11T22:19:06.015Z,101044.53
2018-12-11T22:21:53.005Z,101031.56
2018-12-11T22:27:47.445Z,101045.42
2018-12-11T22:30:34.410Z,101046.04
2018-12-11T22:33:21.120Z,101048.70
2018-12-11T22:36:09.439Z,101044.80
2018-12-11T22:39:00.702Z,101048.33
2018-12-11T22:41:47.684Z,101050.57
2018-12-11T22:44:34.767Z,101053.27
2018-12-11T22:47:21.691Z,101059.16
2018-12-11T22:50:10.312Z,101065.86
2018-12-11T22:53:03.268Z,101063.44
2018-12-11T22:55:52.985Z,101070.12
2018-12-11T22:58:41.696Z,101075.90
2018-12-11T23:01:28.808Z,101078.59
2018-12-11T23:04:15.521Z,101067.90
2018-12-11T23:07:06.681Z,101064.70
2018-12-11T23:10:01.634Z,101068.25
2018-12-11T23:12:49.334Z,101064.03
2018-12-11T23:15:39.307Z,101064.67
2018-12-11T23:18:26.765Z,101068.57
2018-12-11T23:21:17.422Z,101071.47
2018-12-11T23:24:07.875Z,101077.31
2018-12-11T23:26:55.631Z,101076.61
2018-12-11T23:29:42.814Z,101084.81
2018-12-11T23:32:30.059Z,101078.62
2018-12-11T23:35:18.946Z,101083.11
2018-12-11T23:38:05.642Z,101086.66
2018-12-11T23:40:52.528Z,101093.69
2018-12-11T23:43:39.565Z,101094.64
2018-12-11T23:46:28.163Z,101095.56
2018-12-11T23:49:15.666Z,101095.59
2018-12-11T23:52:03.102Z,101100.20
2018-12-11T23:54:50.192Z,101099.42
2018-12-11T23:57:37.125Z,101099.65
